createdAt,value
2023-04-02T00:02:46.614Z,2.08
2023-04-02T00:05:54.808Z,2.26
2023-04-02T00:08:40.780Z,2.23
2023-04-02T00:11:10.718Z,2.14
2023-04-02T00:13:44.710Z,2.17
2023-04-02T00:16:18.676Z,2.24
2023-04-02T00:18:52.984Z,2.16
2023-04-02T00:21:27.842Z,2.23
2023-04-02T00:24:00.216Z,2.21
2023-04-02T00:26:33.655Z,2.14
2023-04-02T00:29:03.827Z,2.33
2023-04-02T00:31:34.025Z,2.20
2023-04-02T00:34:05.542Z,2.18
2023-04-02T00:36:36.471Z,2.27
2023-04-02T00:39:19.084Z,2.19
2023-04-02T00:41:48.401Z,2.14
2023-04-02T00:44:21.647Z,2.21
2023-04-02T00:46:53.449Z,2.12
2023-04-02T00:49:30.982Z,2.11
2023-04-02T00:52:03.892Z,2.15
2023-04-02T00:54:39.951Z,2.11
2023-04-02T00:57:17.732Z,2.13
2023-04-02T00:59:54.966Z,2.09
2023-04-02T01:02:31.009Z,2.18
2023-04-02T01:05:02.234Z,2.19
2023-04-02T01:08:00.734Z,2.14
2023-04-02T01:10:41.651Z,2.03
2023-04-02T01:13:21.920Z,2.09
2023-04-02T01:15:58.356Z,2.13
2023-04-02T01:18:46.630Z,2.04
2023-04-02T01:21:43.035Z,1.93
2023-04-02T01:24:15.867Z,1.96
2023-04-02T01:26:54.612Z,2.03
2023-04-02T01:29:27.808Z,2.02
2023-04-02T01:32:01.363Z,2.00
2023-04-02T01:34:32.106Z,1.99
2023-04-02T01:37:16.715Z,1.95
2023-04-02T01:40:00.971Z,1.91
2023-04-02T01:42:36.934Z,1.99
2023-04-02T01:45:11.160Z,1.83
2023-04-02T01:47:41.205Z,1.86
2023-04-02T01:50:24.800Z,1.82
2023-04-02T01:52:58.108Z,1.81
2023-04-02T01:55:33.761Z,1.73
2023-04-02T01:58:04.191Z,1.76
2023-04-02T02:00:37.319Z,1.76
2023-04-02T02:03:08.640Z,1.83
2023-04-02T02:05:38.259Z,1.83
2023-04-02T02:08:19.959Z,1.78
2023-04-02T02:10:51.513Z,1.67
2023-04-02T02:13:21.960Z,1.61
2023-04-02T02:15:52.987Z,1.67
2023-04-02T02:18:24.141Z,1.71
2023-04-02T02:20:54.116Z,1.67
2023-04-02T02:23:23.631Z,1.76
2023-04-02T02:25:55.181Z,1.69
2023-04-02T02:28:28.754Z,1.56
2023-04-02T02:31:03.949Z,1.65
2023-04-02T02:33:38.191Z,1.54
2023-04-02T02:36:16.139Z,1.59
2023-04-02T02:38:54.733Z,1.46
2023-04-02T02:41:36.390Z,1.56
2023-04-02T02:44:16.109Z,1.53
2023-04-02T02:46:51.335Z,1.55
2023-04-02T02:49:27.253Z,1.49
2023-04-02T02:52:02.197Z,1.61
2023-04-02T02:54:45.106Z,1.49
2023-04-02T02:57:19.750Z,1.61
2023-04-02T02:59:52.215Z,1.58
2023-04-02T03:02:23.011Z,1.62
2023-04-02T03:04:54.717Z,1.38
2023-04-02T03:07:30.226Z,1.47
2023-04-02T03:10:07.784Z,1.50
2023-04-02T03:12:43.381Z,1.45
2023-04-02T03:15:23.046Z,1.48
2023-04-02T03:17:59.974Z,1.58
2023-04-02T03:20:37.818Z,1.56
2023-04-02T03:23:14.618Z,1.70
2023-04-02T03:25:49.722Z,1.54
2023-04-02T03:28:24.521Z,1.58
2023-04-02T03:30:59.512Z,1.60
2023-04-02T03:33:35.104Z,1.60
2023-04-02T03:36:15.596Z,1.56
2023-04-02T03:38:48.548Z,1.58
2023-04-02T03:41:22.730Z,1.65
2023-04-02T03:43:57.471Z,1.54
2023-04-02T03:46:32.391Z,1.61
2023-04-02T03:49:09.041Z,1.65
2023-04-02T03:51:47.861Z,1.56
2023-04-02T03:54:18.747Z,1.67
2023-04-02T03:56:48.265Z,1.69
2023-04-02T03:59:34.682Z,1.65
2023-04-02T04:02:14.182Z,1.79
2023-04-02T04:04:47.908Z,1.78
2023-04-02T04:07:23.674Z,1.77
2023-04-02T04:09:54.152Z,1.65
2023-04-02T04:12:29.643Z,1.65
2023-04-02T04:15:05.756Z,1.69
2023-04-02T04:17:53.865Z,1.72
2023-04-02T04:20:35.166Z,1.66
2023-04-02T04:23:19.840Z,1.71
2023-04-02T04:25:50.524Z,1.70
2023-04-02T04:28:28.713Z,1.78
2023-04-02T04:31:07.180Z,1.80
2023-04-02T04:33:44.463Z,1.74
2023-04-02T04:36:28.670Z,1.81
2023-04-02T04:39:09.392Z,1.90
2023-04-02T04:41:42.494Z,1.94
2023-04-02T04:44:19.842Z,1.88
2023-04-02T04:46:56.711Z,2.02
2023-04-02T04:49:33.760Z,2.16
2023-04-02T04:52:13.796Z,2.20
2023-04-02T04:54:44.045Z,2.28
2023-04-02T04:57:28.305Z,2.32
2023-04-02T05:00:02.169Z,2.36
2023-04-02T05:02:39.648Z,2.38
2023-04-02T05:05:20.376Z,2.54
2023-04-02T05:07:59.154Z,2.49
2023-04-02T05:10:38.652Z,2.60
2023-04-02T05:13:16.127Z,2.80
2023-04-02T05:15:51.417Z,2.84
2023-04-02T05:18:29.377Z,2.87
2023-04-02T05:21:04.028Z,3.03
2023-04-02T05:23:41.563Z,3.07
2023-04-02T05:26:17.375Z,2.96
2023-04-02T05:28:52.034Z,3.16
2023-04-02T05:31:26.212Z,3.17
2023-04-02T05:33:57.470Z,3.25
2023-04-02T05:36:29.211Z,3.22
2023-04-02T05:39:02.663Z,3.30
2023-04-02T05:41:47.514Z,3.39
2023-04-02T05:44:32.856Z,3.52
2023-04-02T05:47:07.069Z,3.44
2023-04-02T05:49:43.541Z,3.69
2023-04-02T05:52:18.405Z,3.72
2023-04-02T05:54:54.355Z,3.96
2023-04-02T05:57:42.100Z,4.38
2023-04-02T06:00:21.596Z,4.31
2023-04-02T06:03:00.976Z,4.35
2023-04-02T06:05:37.832Z,4.22
2023-04-02T06:08:11.847Z,4.21
2023-04-02T06:10:49.894Z,4.43
2023-04-02T06:13:20.692Z,4.42
2023-04-02T06:15:50.945Z,4.21
2023-04-02T06:18:29.694Z,4.49
2023-04-02T06:20:59.617Z,4.29
2023-04-02T06:23:36.652Z,4.24
2023-04-02T06:26:16.911Z,4.45
2023-04-02T06:28:49.049Z,4.55
2023-04-02T06:31:28.830Z,4.66
2023-04-02T06:33:59.007Z,4.39
2023-04-02T06:36:30.543Z,4.69
2023-04-02T06:39:08.929Z,4.66
2023-04-02T06:41:40.002Z,4.53
2023-04-02T06:44:47.966Z,4.80
2023-04-02T06:47:47.996Z,5.15
2023-04-02T06:50:28.785Z,5.34
2023-04-02T06:53:05.097Z,5.16
2023-04-02T06:55:41.576Z,4.66
2023-04-02T06:58:13.002Z,4.46
2023-04-02T07:00:44.291Z,4.78
2023-04-02T07:03:22.657Z,5.11
2023-04-02T07:05:52.157Z,5.30
2023-04-02T07:08:21.978Z,5.02
2023-04-02T07:10:51.135Z,4.62
2023-04-02T07:13:23.617Z,4.66
2023-04-02T07:15:56.271Z,4.67
2023-04-02T07:18:28.621Z,5.23
2023-04-02T07:20:58.879Z,6.05
2023-04-02T07:23:28.940Z,6.08
2023-04-02T07:25:58.554Z,6.13
2023-04-02T07:28:29.663Z,6.13
2023-04-02T07:30:59.086Z,5.55
2023-04-02T07:33:31.116Z,5.51
2023-04-02T07:36:00.565Z,5.31
2023-04-02T07:38:29.600Z,6.55
2023-04-02T07:40:58.910Z,6.23
2023-04-02T07:43:29.482Z,6.08
2023-04-02T07:45:58.619Z,6.59
2023-04-02T07:48:27.740Z,6.65
2023-04-02T07:50:56.834Z,7.21
2023-04-02T07:53:31.650Z,6.95
2023-04-02T07:56:02.806Z,6.63
2023-04-02T07:58:34.705Z,6.47
2023-04-02T08:01:04.408Z,6.35
2023-04-02T08:03:33.760Z,7.23
2023-04-02T08:06:03.110Z,7.15
2023-04-02T08:08:32.152Z,7.15
2023-04-02T08:11:01.387Z,7.35
2023-04-02T08:13:32.615Z,6.99
2023-04-02T08:16:02.179Z,7.36
2023-04-02T08:18:32.238Z,7.32
2023-04-02T08:21:01.911Z,7.70
2023-04-02T08:23:32.779Z,7.01
2023-04-02T08:26:02.549Z,7.19
2023-04-02T08:28:33.009Z,7.18
2023-04-02T08:31:04.418Z,7.25
2023-04-02T08:33:33.629Z,7.51
2023-04-02T08:36:02.795Z,8.11
2023-04-02T08:38:32.073Z,7.86
2023-04-02T08:41:03.786Z,7.62
2023-04-02T08:43:49.025Z,8.51
2023-04-02T08:46:25.786Z,8.20
2023-04-02T08:48:59.271Z,8.11
2023-04-02T08:51:31.474Z,7.97
2023-04-02T08:54:04.314Z,8.26
2023-04-02T08:56:38.763Z,8.48
2023-04-02T08:59:22.891Z,8.79
2023-04-02T09:01:57.571Z,8.14
2023-04-02T09:04:28.072Z,8.26
2023-04-02T09:06:58.969Z,8.23
2023-04-02T09:09:28.936Z,7.95
2023-04-02T09:12:04.313Z,8.14
2023-04-02T09:14:45.675Z,8.39
2023-04-02T09:17:20.318Z,7.45
2023-04-02T09:19:56.968Z,7.49
2023-04-02T09:22:28.234Z,8.39
2023-04-02T09:25:13.276Z,8.55
2023-04-02T09:27:42.317Z,7.80
2023-04-02T09:30:26.737Z,8.72
2023-04-02T09:32:58.012Z,8.58
2023-04-02T09:35:29.283Z,9.22
2023-04-02T09:38:22.213Z,7.70
2023-04-02T09:40:58.354Z,9.30
2023-04-02T09:43:29.230Z,9.40
2023-04-02T09:46:02.771Z,9.39
2023-04-02T09:48:34.402Z,9.26
2023-04-02T09:51:17.611Z,9.25
2023-04-02T09:53:49.123Z,8.95
2023-04-02T09:56:21.632Z,8.68
2023-04-02T09:59:04.915Z,9.62
2023-04-02T10:01:37.321Z,9.25
2023-04-02T10:04:08.235Z,9.14
2023-04-02T10:06:37.932Z,8.48
2023-04-02T10:09:30.205Z,8.61
2023-04-02T10:12:01.701Z,9.36
2023-04-02T10:14:34.809Z,8.67
2023-04-02T10:17:15.071Z,8.77
2023-04-02T10:19:48.732Z,9.29
2023-04-02T10:22:20.919Z,9.57
2023-04-02T10:24:50.701Z,9.46
2023-04-02T10:27:29.619Z,9.40
2023-04-02T10:30:16.799Z,9.32
2023-04-02T10:32:52.745Z,9.28
2023-04-02T10:35:34.206Z,9.31
2023-04-02T10:38:26.174Z,9.25
2023-04-02T10:41:01.538Z,8.91
2023-04-02T10:43:57.783Z,9.25
2023-04-02T10:46:34.117Z,9.33
2023-04-02T10:49:13.305Z,9.34
2023-04-02T10:51:47.111Z,8.67
2023-04-02T10:54:31.240Z,8.75
2023-04-02T10:57:08.456Z,9.13
2023-04-02T10:59:42.501Z,8.77
2023-04-02T11:02:31.750Z,9.01
2023-04-02T11:05:08.731Z,9.48
2023-04-02T11:07:50.769Z,9.53
2023-04-02T11:10:22.138Z,10.65
2023-04-02T11:12:56.972Z,9.74
2023-04-02T11:15:27.208Z,10.14
2023-04-02T11:17:56.463Z,9.19
2023-04-02T11:21:02.258Z,9.52
2023-04-02T11:23:35.825Z,8.48
2023-04-02T11:26:42.158Z,8.28
2023-04-02T11:29:24.143Z,9.52
2023-04-02T11:32:16.309Z,8.83
2023-04-02T11:35:07.175Z,9.30
2023-04-02T11:37:40.099Z,9.55
2023-04-02T11:41:05.712Z,9.48
2023-04-02T11:44:02.553Z,9.38
2023-04-02T11:46:48.642Z,9.08
2023-04-02T11:49:39.671Z,9.39
2023-04-02T11:52:24.223Z,9.71
2023-04-02T11:55:02.170Z,10.30
2023-04-02T11:57:58.373Z,10.02
2023-04-02T12:00:54.675Z,8.83
2023-04-02T12:03:48.482Z,9.36
2023-04-02T12:06:31.425Z,8.64
2023-04-02T12:09:14.841Z,9.56
2023-04-02T12:11:44.676Z,8.53
2023-04-02T12:14:35.038Z,9.47
2023-04-02T12:17:07.731Z,9.30
2023-04-02T12:19:38.745Z,9.73
2023-04-02T12:22:19.950Z,10.00
2023-04-02T12:24:50.323Z,10.05
2023-04-02T12:27:22.495Z,9.87
2023-04-02T12:29:52.268Z,10.43
2023-04-02T12:32:29.605Z,9.69
2023-04-02T12:35:01.486Z,10.38
2023-04-02T12:37:32.454Z,10.39
2023-04-02T12:40:06.991Z,9.70
2023-04-02T12:42:37.563Z,9.55
2023-04-02T12:45:08.816Z,9.81
2023-04-02T12:47:37.854Z,9.92
2023-04-02T12:50:08.425Z,10.15
2023-04-02T12:52:46.516Z,10.01
2023-04-02T12:55:20.718Z,10.02
2023-04-02T12:57:50.606Z,10.37
2023-04-02T13:00:36.046Z,9.79
2023-04-02T13:03:21.309Z,9.70
2023-04-02T13:05:55.415Z,9.04
2023-04-02T13:08:28.922Z,9.51
2023-04-02T13:11:00.620Z,8.65
2023-04-02T13:13:34.438Z,10.18
2023-04-02T13:16:06.496Z,8.80
2023-04-02T13:18:38.527Z,9.93
2023-04-02T13:21:23.805Z,10.59
2023-04-02T13:23:54.527Z,9.43
2023-04-02T13:26:25.938Z,10.00
2023-04-02T13:29:00.270Z,9.76
2023-04-02T13:31:29.802Z,10.21
2023-04-02T13:33:58.877Z,9.95
2023-04-02T13:36:29.482Z,9.79
2023-04-02T13:39:00.182Z,9.90
2023-04-02T13:41:31.572Z,9.89
2023-04-02T13:44:03.241Z,9.19
2023-04-02T13:46:36.237Z,9.88
2023-04-02T13:49:05.287Z,10.36
2023-04-02T13:51:41.950Z,10.22
2023-04-02T13:54:16.881Z,10.81
2023-04-02T13:56:46.636Z,10.06
2023-04-02T13:59:16.065Z,9.23
2023-04-02T14:01:47.333Z,9.05
2023-04-02T14:04:21.731Z,9.38
2023-04-02T14:07:24.525Z,9.09
2023-04-02T14:10:04.707Z,9.29
2023-04-02T14:12:48.584Z,9.92
2023-04-02T14:15:34.622Z,9.75
2023-04-02T14:18:26.026Z,8.42
2023-04-02T14:21:08.417Z,9.85
2023-04-02T14:23:53.881Z,10.08
2023-04-02T14:26:39.383Z,9.50
2023-04-02T14:29:15.029Z,10.20
2023-04-02T14:31:50.284Z,8.31
2023-04-02T14:34:27.238Z,8.28
2023-04-02T14:37:03.147Z,9.19
2023-04-02T14:39:42.827Z,8.04
2023-04-02T14:42:18.314Z,8.57
2023-04-02T14:44:54.205Z,9.44
2023-04-02T14:47:29.228Z,7.86
2023-04-02T14:50:05.556Z,8.42
2023-04-02T14:52:36.106Z,9.42
2023-04-02T14:55:10.937Z,9.10
2023-04-02T14:57:49.020Z,9.08
2023-04-02T15:00:29.733Z,9.04
2023-04-02T15:03:06.505Z,9.46
2023-04-02T15:05:42.356Z,9.32
2023-04-02T15:08:20.456Z,7.94
2023-04-02T15:11:04.983Z,8.06
2023-04-02T15:13:40.785Z,8.34
2023-04-02T15:16:14.278Z,8.95
2023-04-02T15:18:43.361Z,8.92
2023-04-02T15:21:38.748Z,8.37
2023-04-02T15:24:18.661Z,9.38
2023-04-02T15:27:00.135Z,8.60
2023-04-02T15:29:49.655Z,8.52
2023-04-02T15:32:28.505Z,8.94
2023-04-02T15:35:08.095Z,8.24
2023-04-02T15:37:44.156Z,8.05
2023-04-02T15:40:25.894Z,8.30
2023-04-02T15:43:00.961Z,8.77
2023-04-02T15:45:44.983Z,8.29
2023-04-02T15:48:37.528Z,8.27
2023-04-02T15:51:24.511Z,8.15
2023-04-02T15:54:03.981Z,8.34
2023-04-02T15:56:42.098Z,7.63
2023-04-02T15:59:35.866Z,7.79
2023-04-02T16:02:38.758Z,7.73
2023-04-02T16:05:21.127Z,7.83
2023-04-02T16:08:31.937Z,7.95
2023-04-02T16:11:00.998Z,7.71
2023-04-02T16:13:32.889Z,7.60
2023-04-02T16:16:06.318Z,7.20
2023-04-02T16:18:50.651Z,7.22
2023-04-02T16:21:23.939Z,7.63
2023-04-02T16:23:54.322Z,7.44
2023-04-02T16:26:37.893Z,7.14
2023-04-02T16:29:28.465Z,7.21
2023-04-02T16:32:06.453Z,7.07
2023-04-02T16:34:48.155Z,7.02
2023-04-02T16:37:26.138Z,6.90
2023-04-02T16:40:03.406Z,6.63
2023-04-02T16:42:44.238Z,6.42
2023-04-02T16:45:29.518Z,6.31
2023-04-02T16:48:12.816Z,5.99
2023-04-02T16:50:54.897Z,5.94
2023-04-02T16:53:33.920Z,5.84
2023-04-02T16:56:32.815Z,6.03
2023-04-02T16:59:14.348Z,6.18
2023-04-02T17:01:51.903Z,5.94
2023-04-02T17:04:47.781Z,5.73
2023-04-02T17:07:28.552Z,5.57
2023-04-02T17:10:15.565Z,5.47
2023-04-02T17:12:47.742Z,5.56
2023-04-02T17:15:27.814Z,5.60
2023-04-02T17:17:59.903Z,5.33
2023-04-02T17:20:29.851Z,5.43
2023-04-02T17:23:00.731Z,5.45
2023-04-02T17:25:34.638Z,5.07
2023-04-02T17:28:03.922Z,5.26
2023-04-02T17:30:39.981Z,5.12
2023-04-02T17:33:16.129Z,5.13
2023-04-02T17:35:56.507Z,5.02
2023-04-02T17:38:41.105Z,4.99
2023-04-02T17:41:23.003Z,4.89
2023-04-02T17:44:00.884Z,4.82
2023-04-02T17:46:42.859Z,4.86
2023-04-02T17:49:22.084Z,4.72
2023-04-02T17:52:05.926Z,4.59
2023-04-02T17:54:49.818Z,4.63
2023-04-02T17:57:32.508Z,4.50
2023-04-02T18:00:29.944Z,4.44
2023-04-02T18:03:24.137Z,4.28
2023-04-02T18:06:07.520Z,4.33
2023-04-02T18:08:56.039Z,4.28
2023-04-02T18:11:35.749Z,4.27
2023-04-02T18:14:30.171Z,4.12
2023-04-02T18:17:15.008Z,4.07
2023-04-02T18:19:55.384Z,4.04
2023-04-02T18:22:34.674Z,3.97
2023-04-02T18:25:26.050Z,3.94
2023-04-02T18:28:17.876Z,3.89
2023-04-02T18:30:54.903Z,3.79
2023-04-02T18:33:56.924Z,3.74
2023-04-02T18:36:33.863Z,3.78
2023-04-02T18:39:13.331Z,3.68
2023-04-02T18:41:56.884Z,3.61
2023-04-02T18:44:44.815Z,3.55
2023-04-02T18:47:25.864Z,3.49
2023-04-02T18:50:12.986Z,3.58
2023-04-02T18:52:46.568Z,3.51
2023-04-02T18:55:22.070Z,3.36
2023-04-02T18:58:01.916Z,3.33
2023-04-02T19:00:38.297Z,3.30
2023-04-02T19:03:20.881Z,3.29
2023-04-02T19:06:03.511Z,3.36
2023-04-02T19:08:48.823Z,3.26
2023-04-02T19:11:28.725Z,3.17
2023-04-02T19:14:08.497Z,3.24
2023-04-02T19:17:00.235Z,3.12
2023-04-02T19:19:44.359Z,3.11
2023-04-02T19:22:31.397Z,3.11
2023-04-02T19:25:26.103Z,3.01
2023-04-02T19:28:08.563Z,2.99
2023-04-02T19:30:58.102Z,2.88
2023-04-02T19:33:45.879Z,2.89
2023-04-02T19:36:38.315Z,2.80
2023-04-02T19:39:39.995Z,2.83
2023-04-02T19:42:20.121Z,2.83
2023-04-02T19:44:55.009Z,2.72
2023-04-02T19:47:29.593Z,2.65
2023-04-02T19:50:04.101Z,2.70
2023-04-02T19:52:34.181Z,2.65
2023-04-02T19:55:03.212Z,2.66
2023-04-02T19:57:32.264Z,2.63
2023-04-02T20:00:01.355Z,2.62
2023-04-02T20:02:30.647Z,2.51
2023-04-02T20:05:01.163Z,2.58
2023-04-02T20:07:32.313Z,2.58
2023-04-02T20:10:01.407Z,2.54
2023-04-02T20:12:30.493Z,2.48
2023-04-02T20:14:59.555Z,2.41
2023-04-02T20:17:29.223Z,2.42
2023-04-02T20:19:58.224Z,2.29
2023-04-02T20:22:28.599Z,2.42
2023-04-02T20:24:57.622Z,2.52
2023-04-02T20:27:26.635Z,2.36
2023-04-02T20:29:55.660Z,2.42
2023-04-02T20:32:24.821Z,2.19
2023-04-02T20:34:54.234Z,2.31
2023-04-02T20:37:23.624Z,2.26
2023-04-02T20:39:54.146Z,2.21
2023-04-02T20:42:23.204Z,2.09
2023-04-02T20:44:52.342Z,2.12
2023-04-02T20:47:21.451Z,2.12
2023-04-02T20:49:51.177Z,2.02
2023-04-02T20:52:21.916Z,2.03
2023-04-02T20:54:51.587Z,2.00
2023-04-02T20:57:22.807Z,1.86
2023-04-02T20:59:51.865Z,1.82
2023-04-02T21:02:20.864Z,1.82
2023-04-02T21:04:49.904Z,1.68
2023-04-02T21:07:18.957Z,1.61
2023-04-02T21:09:48.005Z,1.61
2023-04-02T21:12:17.439Z,1.61
2023-04-02T21:14:48.573Z,1.57
2023-04-02T21:17:17.582Z,1.57
2023-04-02T21:19:46.584Z,1.51
2023-04-02T21:22:16.024Z,1.50
2023-04-02T21:24:45.228Z,1.49
2023-04-02T21:27:14.379Z,1.40
2023-04-02T21:29:43.509Z,1.43
2023-04-02T21:32:21.195Z,1.45
2023-04-02T21:34:51.311Z,1.45
2023-04-02T21:37:20.360Z,1.43
2023-04-02T21:39:49.432Z,1.42
2023-04-02T21:42:18.503Z,1.29
2023-04-02T21:44:47.517Z,1.27
2023-04-02T21:47:18.042Z,1.17
2023-04-02T21:49:47.105Z,1.20
2023-04-02T21:52:16.157Z,0.97
2023-04-02T21:54:45.238Z,0.97
2023-04-02T21:57:14.318Z,0.94
2023-04-02T21:59:43.401Z,0.92
2023-04-02T22:02:12.412Z,0.90
2023-04-02T22:04:42.864Z,0.77
2023-04-02T22:07:11.895Z,0.80
2023-04-02T22:09:41.291Z,0.84
2023-04-02T22:12:10.914Z,0.85
2023-04-02T22:14:43.062Z,0.87
2023-04-02T22:17:12.246Z,0.80
2023-04-02T22:19:42.741Z,0.62
2023-04-02T22:22:11.752Z,0.46
2023-04-02T22:24:40.785Z,0.56
2023-04-02T22:27:09.840Z,0.43
2023-04-02T22:29:38.854Z,0.43
2023-04-02T22:32:07.909Z,0.34
2023-04-02T22:34:38.707Z,0.41
2023-04-02T22:37:09.058Z,0.52
2023-04-02T22:39:38.095Z,0.52
2023-04-02T22:42:07.339Z,0.54
2023-04-02T22:44:36.379Z,0.45
2023-04-02T22:47:05.666Z,0.50
2023-04-02T22:49:34.692Z,0.44
2023-04-02T22:52:05.834Z,0.43
2023-04-02T22:54:36.297Z,0.50
2023-04-02T22:57:05.633Z,0.41
2023-04-02T22:59:34.734Z,0.34
2023-04-02T23:02:03.938Z,0.29
2023-04-02T23:04:33.005Z,0.32
2023-04-02T23:07:02.141Z,0.29
2023-04-02T23:09:31.158Z,0.24
2023-04-02T23:12:01.611Z,0.22
2023-04-02T23:14:30.804Z,0.17
2023-04-02T23:16:59.820Z,0.20
2023-04-02T23:19:28.831Z,0.22
2023-04-02T23:21:58.034Z,0.21
2023-04-02T23:24:27.180Z,0.14
2023-04-02T23:26:56.201Z,0.09
2023-04-02T23:29:26.715Z,0.06
2023-04-02T23:31:55.842Z,0.04
2023-04-02T23:34:24.945Z,0.10
2023-04-02T23:36:53.993Z,0.08
2023-04-02T23:39:23.070Z,0.10
2023-04-02T23:41:52.100Z,0.16
2023-04-02T23:44:21.262Z,0.08
2023-04-02T23:46:51.886Z,0.06
2023-04-02T23:49:21.102Z,0.08
2023-04-02T23:51:51.038Z,0.05
2023-04-02T23:54:20.107Z,0.03
2023-04-02T23:56:49.208Z,-0.02
2023-04-02T23:59:18.289Z,-0.01
